Time;durP1;ratioP1;P1;durP2;ratioP2;P2;SDS_P1;SDS_P2;PMS_P1;PMS_P2;Temp;Humidity;BMP_temperature;BMP_pressure;BME280_temperature;BME280_humidity;BME280_pressure;Samples;Min_cycle;Max_cycle;Signal;HPM_P1;HPM_P2
2024/01/19 00:02:10;;;;;;;;;;;12.70;60.10;;;;;;6245826;23;20369;-73
2024/01/19 00:04:36;;;;;;;;;;;12.60;60.10;;;;;;6246482;23;20478;-73
2024/01/19 00:07:01;;;;;;;;;;;12.70;58.90;;;;;;6245803;23;19904;-73
2024/01/19 00:09:27;;;;;;;;;;;12.60;60.20;;;;;;6245756;23;20246;-73
2024/01/19 00:11:52;;;;;;;;;;;12.70;60.40;;;;;;6245753;23;19908;-73
2024/01/19 00:14:18;;;;;;;;;;;12.70;60.30;;;;;;6245773;23;19954;-73
2024/01/19 00:16:43;;;;;;;;;;;12.70;60.10;;;;;;6245304;23;19911;-68
2024/01/19 00:19:10;;;;;;;;;;;12.60;60.00;;;;;;6245715;23;19938;-68
2024/01/19 00:21:42;;;;;;;;;;;12.60;60.00;;;;;;6246258;23;19938;-68
2024/01/19 00:24:08;;;;;;;;;;;12.60;55.80;;;;;;6246253;23;19931;-68
2024/01/19 00:26:33;;;;;;;;;;;12.60;60.40;;;;;;6245679;23;19903;-68
2024/01/19 00:28:59;;;;;;;;;;;12.60;60.20;;;;;;6245747;23;19978;-69
2024/01/19 00:31:26;;;;;;;;;;;12.60;60.20;;;;;;6245667;23;19952;-68
2024/01/19 00:33:51;;;;;;;;;;;12.60;60.00;;;;;;6246248;23;19903;-68
2024/01/19 00:36:17;;;;;;;;;;;12.60;60.20;;;;;;6245460;23;19954;-68
2024/01/19 00:38:43;;;;;;;;;;;12.60;59.50;;;;;;6246129;23;19934;-68
2024/01/19 00:41:09;;;;;;;;;;;13.00;60.10;;;;;;6246039;23;19912;-68
2024/01/19 00:43:34;;;;;;;;;;;12.90;60.20;;;;;;6245460;23;19907;-68
2024/01/19 00:45:59;;;;;;;;;;;12.60;60.10;;;;;;6245382;22;20319;-68
2024/01/19 00:48:25;;;;;;;;;;;12.60;59.70;;;;;;6245345;23;19904;-68
2024/01/19 00:50:50;;;;;;;;;;;12.40;60.00;;;;;;6245380;23;19910;-68
2024/01/19 00:53:16;;;;;;;;;;;12.60;59.90;;;;;;6245278;23;19908;-68
2024/01/19 00:55:41;;;;;;;;;;;12.50;59.90;;;;;;6245158;23;19911;-68
2024/01/19 00:58:07;;;;;;;;;;;12.60;60.20;;;;;;6245211;23;20002;-67
2024/01/19 01:00:32;;;;;;;;;;;12.50;60.20;;;;;;6245958;23;19915;-68
2024/01/19 01:02:58;;;;;;;;;;;10.50;59.10;;;;;;6244301;23;20001;-68
2024/01/19 01:05:23;;;;;;;;;;;12.50;60.00;;;;;;6243662;23;19903;-68
2024/01/19 01:07:49;;;;;;;;;;;12.70;60.20;;;;;;6245936;23;19914;-68
2024/01/19 01:10:14;;;;;;;;;;;12.50;60.20;;;;;;6245237;23;19904;-68
2024/01/19 01:12:40;;;;;;;;;;;12.50;59.80;;;;;;6245153;23;19904;-68
2024/01/19 01:15:05;;;;;;;;;;;12.50;59.90;;;;;;6245222;23;19904;-68
2024/01/19 01:17:31;;;;;;;;;;;12.50;59.80;;;;;;6245046;23;19919;-68
2024/01/19 01:19:56;;;;;;;;;;;12.30;59.80;;;;;;6245139;23;19904;-68
2024/01/19 01:22:22;;;;;;;;;;;12.60;60.00;;;;;;6245070;23;19911;-68
2024/01/19 01:24:48;;;;;;;;;;;12.50;60.20;;;;;;6245133;23;19957;-68
2024/01/19 01:27:14;;;;;;;;;;;12.40;60.00;;;;;;6245446;22;19904;-68
2024/01/19 01:29:40;;;;;;;;;;;12.50;60.10;;;;;;6245615;23;19950;-68
2024/01/19 01:32:06;;;;;;;;;;;12.50;60.10;;;;;;6245863;23;20314;-68
2024/01/19 01:34:32;;;;;;;;;;;12.40;60.00;;;;;;6245618;23;19904;-68
2024/01/19 01:36:59;;;;;;;;;;;12.50;60.20;;;;;;6245618;23;20327;-68
2024/01/19 01:39:25;;;;;;;;;;;12.40;59.70;;;;;;6244828;23;19903;-68
2024/01/19 01:41:51;;;;;;;;;;;12.40;59.90;;;;;;6245042;23;19903;-68
2024/01/19 01:44:17;;;;;;;;;;;12.40;60.00;;;;;;6243317;23;19998;-68
2024/01/19 01:46:42;;;;;;;;;;;12.40;59.80;;;;;;6244814;22;19943;-68
2024/01/19 01:49:08;;;;;;;;;;;12.40;60.00;;;;;;6244967;23;19903;-68
2024/01/19 01:51:33;;;;;;;;;;;12.20;59.90;;;;;;6244941;23;19986;-68
2024/01/19 01:53:59;;;;;;;;;;;12.40;59.80;;;;;;6244803;23;19914;-68
2024/01/19 01:56:25;;;;;;;;;;;12.40;60.30;;;;;;6243222;23;19912;-68
2024/01/19 01:58:51;;;;;;;;;;;12.40;60.20;;;;;;6245371;23;19982;-68
2024/01/19 02:01:16;;;;;;;;;;;12.40;60.30;;;;;;6244809;23;19923;-67
2024/01/19 02:03:43;;;;;;;;;;;12.40;60.20;;;;;;6244945;23;19903;-68
2024/01/19 02:06:08;;;;;;;;;;;12.40;60.20;;;;;;6244877;23;20242;-68
2024/01/19 02:08:34;;;;;;;;;;;12.40;60.40;;;;;;6244835;23;19904;-68
2024/01/19 02:10:59;;;;;;;;;;;12.30;59.80;;;;;;6244803;23;19908;-68
2024/01/19 02:13:25;;;;;;;;;;;12.30;60.10;;;;;;6244808;23;19910;-68
2024/01/19 02:15:51;;;;;;;;;;;12.30;60.10;;;;;;6244638;23;20319;-68
2024/01/19 02:18:17;;;;;;;;;;;12.30;60.30;;;;;;6244696;23;19990;-68
2024/01/19 02:20:42;;;;;;;;;;;12.20;60.00;;;;;;6244812;23;19931;-68
2024/01/19 02:23:12;;;;;;;;;;;12.20;60.00;;;;;;6245392;23;19986;-68
2024/01/19 02:25:37;;;;;;;;;;;12.30;60.10;;;;;;6244759;23;20013;-68
2024/01/19 02:28:03;;;;;;;;;;;12.30;60.00;;;;;;6245291;23;19908;-68
2024/01/19 02:30:29;;;;;;;;;;;12.30;60.00;;;;;;6244748;23;19904;-68
2024/01/19 02:32:54;;;;;;;;;;;12.30;60.10;;;;;;6244776;23;19958;-68
2024/01/19 02:35:20;;;;;;;;;;;12.20;59.60;;;;;;6244755;23;19908;-67
2024/01/19 02:37:45;;;;;;;;;;;12.30;59.70;;;;;;6245279;23;19904;-70
2024/01/19 02:40:11;;;;;;;;;;;12.20;60.00;;;;;;6246657;23;19939;-68
2024/01/19 02:42:36;;;;;;;;;;;12.20;59.40;;;;;;6246565;23;19908;-68
2024/01/19 02:45:02;;;;;;;;;;;12.20;60.00;;;;;;6246402;22;19986;-68
2024/01/19 02:47:28;;;;;;;;;;;12.20;60.00;;;;;;6246547;23;19926;-68
2024/01/19 02:49:53;;;;;;;;;;;12.40;60.20;;;;;;6247090;23;19908;-68
2024/01/19 02:52:19;;;;;;;;;;;12.20;60.20;;;;;;6246514;23;19903;-68
2024/01/19 02:54:44;;;;;;;;;;;12.20;60.30;;;;;;6246521;23;20339;-68
2024/01/19 02:57:10;;;;;;;;;;;12.20;60.60;;;;;;6247020;23;19918;-68
2024/01/19 02:59:35;;;;;;;;;;;12.20;60.80;;;;;;6244761;23;20345;-68
2024/01/19 03:02:01;;;;;;;;;;;12.20;60.40;;;;;;6246471;23;19904;-68
2024/01/19 03:04:27;;;;;;;;;;;12.20;60.50;;;;;;6246379;23;19982;-68
2024/01/19 03:06:53;;;;;;;;;;;12.30;60.50;;;;;;6246497;23;19994;-67
2024/01/19 03:09:19;;;;;;;;;;;12.20;60.40;;;;;;6244751;23;19904;-68
2024/01/19 03:11:44;;;;;;;;;;;12.20;60.50;;;;;;6246358;23;20385;-68
2024/01/19 03:14:10;;;;;;;;;;;12.20;60.50;;;;;;6246356;23;19910;-68
2024/01/19 03:16:40;;;;;;;;;;;12.30;60.60;;;;;;6244589;23;19939;-68
2024/01/19 03:19:05;;;;;;;;;;;12.30;60.60;;;;;;6246264;23;19910;-68
2024/01/19 03:21:31;;;;;;;;;;;12.20;60.40;;;;;;6245317;23;19903;-68
2024/01/19 03:23:57;;;;;;;;;;;12.20;60.70;;;;;;6246592;23;19979;-68
2024/01/19 03:26:23;;;;;;;;;;;12.20;60.90;;;;;;6246782;23;19997;-68
2024/01/19 03:28:49;;;;;;;;;;;12.30;60.60;;;;;;6246860;23;20326;-68
2024/01/19 03:31:15;;;;;;;;;;;12.20;60.60;;;;;;6246330;23;19908;-68
2024/01/19 03:33:41;;;;;;;;;;;12.30;60.60;;;;;;6246331;23;19903;-68
2024/01/19 03:36:07;;;;;;;;;;;12.20;60.40;;;;;;6246529;23;19995;-68
2024/01/19 03:38:33;;;;;;;;;;;12.20;59.80;;;;;;6246602;23;19908;-68
2024/01/19 03:41:00;;;;;;;;;;;12.20;60.60;;;;;;6246643;22;19932;-68
2024/01/19 03:43:26;;;;;;;;;;;12.20;60.50;;;;;;6246054;23;19919;-69
2024/01/19 03:45:51;;;;;;;;;;;12.20;60.60;;;;;;6245846;22;19935;-68
2024/01/19 03:48:18;;;;;;;;;;;12.10;60.50;;;;;;6245943;23;19975;-68
2024/01/19 03:50:43;;;;;;;;;;;12.20;60.60;;;;;;6245450;23;19907;-68
2024/01/19 03:53:10;;;;;;;;;;;12.10;60.10;;;;;;6245935;23;19912;-68
2024/01/19 03:55:35;;;;;;;;;;;12.30;60.40;;;;;;6245800;23;19919;-68
2024/01/19 03:58:01;;;;;;;;;;;12.10;60.50;;;;;;6245902;23;19904;-68
2024/01/19 04:00:26;;;;;;;;;;;12.20;60.40;;;;;;6245821;23;19926;-68
2024/01/19 04:02:52;;;;;;;;;;;12.10;60.40;;;;;;6246711;23;19935;-68
2024/01/19 04:05:17;;;;;;;;;;;12.10;60.40;;;;;;6245794;23;19943;-68
2024/01/19 04:07:43;;;;;;;;;;;12.10;60.00;;;;;;6245771;23;19912;-68
2024/01/19 04:10:08;;;;;;;;;;;12.10;60.40;;;;;;6245732;23;19953;-68
2024/01/19 04:12:34;;;;;;;;;;;12.10;59.80;;;;;;6246431;23;19942;-68
2024/01/19 04:15:00;;;;;;;;;;;12.10;60.50;;;;;;6244477;23;19903;-68
2024/01/19 04:17:26;;;;;;;;;;;12.10;60.70;;;;;;6246123;23;20062;-68
2024/01/19 04:19:52;;;;;;;;;;;12.10;60.70;;;;;;6246283;23;19923;-68
2024/01/19 04:22:18;;;;;;;;;;;12.10;60.60;;;;;;6246163;23;19918;-68
2024/01/19 04:24:44;;;;;;;;;;;12.10;60.70;;;;;;6246534;23;19990;-68
2024/01/19 04:27:10;;;;;;;;;;;12.00;60.70;;;;;;6246263;23;19942;-68
2024/01/19 04:29:36;;;;;;;;;;;12.10;60.00;;;;;;6246098;23;19904;-68
2024/01/19 04:32:02;;;;;;;;;;;12.10;60.40;;;;;;6245413;23;20021;-68
2024/01/19 04:34:27;;;;;;;;;;;12.00;60.10;;;;;;6245377;23;19903;-68
2024/01/19 04:36:53;;;;;;;;;;;12.10;60.60;;;;;;6245406;23;19922;-68
2024/01/19 04:39:18;;;;;;;;;;;12.00;60.00;;;;;;6245999;23;19926;-68
2024/01/19 04:41:44;;;;;;;;;;;12.00;60.40;;;;;;6246199;23;20380;-68
2024/01/19 04:44:10;;;;;;;;;;;12.00;60.50;;;;;;6246036;23;19975;-68
2024/01/19 04:46:36;;;;;;;;;;;12.00;60.40;;;;;;6245491;22;19920;-68
2024/01/19 04:49:02;;;;;;;;;;;11.90;60.30;;;;;;6245958;23;19911;-68
2024/01/19 04:51:28;;;;;;;;;;;12.10;60.40;;;;;;6245972;23;19903;-68
2024/01/19 04:53:54;;;;;;;;;;;12.00;60.50;;;;;;6245905;23;20226;-68
2024/01/19 04:56:20;;;;;;;;;;;12.00;60.60;;;;;;6245861;23;19912;-68
2024/01/19 04:58:46;;;;;;;;;;;12.00;60.40;;;;;;6246421;23;19929;-68
2024/01/19 05:01:12;;;;;;;;;;;12.00;60.30;;;;;;6245936;23;20216;-68
2024/01/19 05:03:37;;;;;;;;;;;12.00;60.30;;;;;;6245161;23;19989;-68
2024/01/19 05:06:03;;;;;;;;;;;11.90;60.30;;;;;;6243569;23;19914;-67
2024/01/19 05:08:28;;;;;;;;;;;11.90;60.20;;;;;;6243499;23;19911;-70
2024/01/19 05:10:54;;;;;;;;;;;12.10;60.00;;;;;;6245377;23;19904;-67
2024/01/19 05:13:19;;;;;;;;;;;12.00;60.50;;;;;;6243508;23;19958;-67
2024/01/19 05:15:45;;;;;;;;;;;12.00;61.00;;;;;;6245020;23;19911;-67
2024/01/19 05:18:10;;;;;;;;;;;11.90;60.20;;;;;;6245101;23;19939;-67
2024/01/19 05:20:38;;;;;;;;;;;11.90;60.30;;;;;;6245205;23;19904;-67
2024/01/19 05:23:04;;;;;;;;;;;11.90;60.00;;;;;;6245054;23;19908;-67
2024/01/19 05:25:30;;;;;;;;;;;11.90;60.20;;;;;;6245111;23;19904;-67
2024/01/19 05:27:55;;;;;;;;;;;11.90;59.70;;;;;;6245618;23;19978;-70
2024/01/19 05:30:23;;;;;;;;;;;11.90;60.30;;;;;;6245813;23;20260;-69
2024/01/19 05:32:49;;;;;;;;;;;11.90;60.40;;;;;;6245617;23;19904;-67
2024/01/19 05:35:15;;;;;;;;;;;11.90;60.40;;;;;;6245564;23;19910;-67
2024/01/19 05:37:41;;;;;;;;;;;11.90;60.10;;;;;;6245388;23;19935;-67
2024/01/19 05:40:07;;;;;;;;;;;11.90;60.30;;;;;;6245100;23;20230;-67
2024/01/19 05:42:32;;;;;;;;;;;11.90;59.30;;;;;;6245000;23;19904;-70
2024/01/19 05:44:57;;;;;;;;;;;11.90;60.30;;;;;;6244760;22;19991;-69
2024/01/19 05:47:23;;;;;;;;;;;11.90;60.40;;;;;;6245074;23;20332;-70
2024/01/19 05:49:49;;;;;;;;;;;11.90;60.30;;;;;;6244995;23;19904;-69
2024/01/19 05:52:14;;;;;;;;;;;11.80;60.30;;;;;;6243482;23;20219;-70
2024/01/19 05:54:40;;;;;;;;;;;11.90;60.20;;;;;;6244986;23;19926;-69
2024/01/19 05:57:05;;;;;;;;;;;11.80;60.50;;;;;;6246055;23;19919;-67
2024/01/19 05:59:33;;;;;;;;;;;11.90;60.60;;;;;;6245674;23;19958;-70
2024/01/19 06:01:59;;;;;;;;;;;11.90;60.70;;;;;;6245051;23;19950;-70
2024/01/19 06:04:25;;;;;;;;;;;11.80;60.40;;;;;;6245127;23;19903;-69
2024/01/19 06:06:50;;;;;;;;;;;11.80;60.30;;;;;;6245491;23;19931;-70
2024/01/19 06:09:16;;;;;;;;;;;11.80;60.60;;;;;;6245470;23;19911;-67
2024/01/19 06:11:42;;;;;;;;;;;11.90;60.60;;;;;;6245432;23;20380;-70
2024/01/19 06:14:08;;;;;;;;;;;11.80;60.70;;;;;;6246245;23;20219;-70
2024/01/19 06:16:37;;;;;;;;;;;11.80;60.00;;;;;;6247001;23;20014;-70
2024/01/19 06:19:03;;;;;;;;;;;11.70;60.90;;;;;;6247118;23;19915;-70
2024/01/19 06:21:29;;;;;;;;;;;11.80;60.70;;;;;;6247388;23;20238;-68
2024/01/19 06:23:55;;;;;;;;;;;11.90;60.60;;;;;;6248141;23;19904;-68
2024/01/19 06:26:21;;;;;;;;;;;12.00;60.70;;;;;;6247525;23;20246;-67
2024/01/19 06:28:47;;;;;;;;;;;11.80;60.40;;;;;;6247459;23;19923;-70
2024/01/19 06:31:13;;;;;;;;;;;11.90;60.80;;;;;;6246939;23;19908;-70
2024/01/19 06:33:40;;;;;;;;;;;11.70;60.40;;;;;;6247374;23;19910;-69
2024/01/19 06:36:09;;;;;;;;;;;11.70;60.10;;;;;;6247075;23;19911;-71
2024/01/19 06:38:35;;;;;;;;;;;11.70;60.20;;;;;;6246760;23;20357;-71
2024/01/19 06:41:02;;;;;;;;;;;11.80;60.60;;;;;;6247220;23;19904;-71
2024/01/19 06:43:28;;;;;;;;;;;11.70;60.80;;;;;;6247479;22;19904;-70
2024/01/19 06:45:54;;;;;;;;;;;11.70;60.50;;;;;;6246915;22;19958;-71
2024/01/19 06:48:20;;;;;;;;;;;11.70;60.60;;;;;;6247231;23;20268;-69
2024/01/19 06:50:46;;;;;;;;;;;11.70;60.50;;;;;;6248755;23;19938;-71
2024/01/19 06:53:12;;;;;;;;;;;11.90;60.60;;;;;;6247692;23;19904;-71
2024/01/19 06:55:38;;;;;;;;;;;11.70;60.40;;;;;;6245376;23;19908;-72
2024/01/19 06:58:04;;;;;;;;;;;11.70;60.60;;;;;;6245521;23;20021;-70
2024/01/19 07:00:30;;;;;;;;;;;11.70;60.60;;;;;;6245628;23;19910;-72
2024/01/19 07:02:55;;;;;;;;;;;11.70;60.60;;;;;;6246838;23;19903;-72
2024/01/19 07:05:21;;;;;;;;;;;11.70;60.50;;;;;;6247236;23;19978;-71
2024/01/19 07:07:47;;;;;;;;;;;12.00;60.90;;;;;;6246617;23;19990;-71
2024/01/19 07:10:12;;;;;;;;;;;11.70;60.40;;;;;;6247096;23;19954;-68
2024/01/19 07:12:38;;;;;;;;;;;11.70;60.40;;;;;;6246433;23;19927;-70
2024/01/19 07:15:06;;;;;;;;;;;11.90;60.70;;;;;;6246480;23;19903;-70
2024/01/19 07:17:31;;;;;;;;;;;11.70;58.70;;;;;;6246360;23;19918;-70
2024/01/19 07:19:59;;;;;;;;;;;11.90;60.50;;;;;;6246442;23;19931;-70
2024/01/19 07:22:27;;;;;;;;;;;11.80;60.20;;;;;;6246959;23;20199;-70
2024/01/19 07:24:53;;;;;;;;;;;11.80;60.50;;;;;;6246123;23;19907;-66
2024/01/19 07:27:19;;;;;;;;;;;11.70;60.40;;;;;;6246511;23;19910;-68
2024/01/19 07:29:45;;;;;;;;;;;11.70;60.50;;;;;;6246809;23;19904;-67
2024/01/19 07:32:11;;;;;;;;;;;11.70;60.70;;;;;;6246320;23;19914;-67
2024/01/19 07:34:37;;;;;;;;;;;11.80;60.60;;;;;;6246364;23;19904;-67
2024/01/19 07:37:03;;;;;;;;;;;11.70;60.60;;;;;;6246152;23;19926;-69
2024/01/19 07:39:29;;;;;;;;;;;11.80;60.60;;;;;;6246791;23;19950;-69
2024/01/19 07:41:55;;;;;;;;;;;11.80;61.10;;;;;;6246148;22;20327;-69
2024/01/19 07:44:21;;;;;;;;;;;12.00;61.10;;;;;;6245917;22;20418;-69
2024/01/19 07:46:48;;;;;;;;;;;11.70;61.10;;;;;;6245910;23;19912;-69
2024/01/19 07:49:13;;;;;;;;;;;11.80;61.10;;;;;;6246389;23;19908;-69
2024/01/19 07:51:39;;;;;;;;;;;12.10;61.30;;;;;;6245775;23;19990;-69
2024/01/19 07:54:04;;;;;;;;;;;11.80;61.10;;;;;;6245748;23;19914;-69
2024/01/19 07:56:30;;;;;;;;;;;11.70;60.70;;;;;;6244031;23;19915;-69
2024/01/19 07:58:56;;;;;;;;;;;11.80;60.80;;;;;;6246200;23;19999;-69
2024/01/19 08:01:22;;;;;;;;;;;11.80;61.10;;;;;;6246152;23;19950;-68
2024/01/19 08:03:47;;;;;;;;;;;11.80;60.90;;;;;;6245676;23;19938;-68
2024/01/19 08:06:13;;;;;;;;;;;11.80;61.10;;;;;;6246014;23;19907;-68
2024/01/19 08:08:39;;;;;;;;;;;11.80;61.10;;;;;;6245661;23;19904;-68
2024/01/19 08:11:05;;;;;;;;;;;11.80;61.70;;;;;;6246012;23;20318;-68
2024/01/19 08:13:31;;;;;;;;;;;11.80;61.30;;;;;;6245494;23;19911;-69
2024/01/19 08:15:57;;;;;;;;;;;11.80;61.10;;;;;;6245465;23;19915;-69
2024/01/19 08:18:24;;;;;;;;;;;11.70;60.90;;;;;;6245890;23;19939;-68
2024/01/19 08:20:49;;;;;;;;;;;11.80;61.20;;;;;;6245803;23;20334;-68
2024/01/19 08:23:15;;;;;;;;;;;12.10;61.30;;;;;;6245403;23;19908;-69
2024/01/19 08:25:41;;;;;;;;;;;11.90;60.90;;;;;;6246304;23;19907;-69
2024/01/19 08:28:07;;;;;;;;;;;11.80;61.30;;;;;;6245377;23;20002;-69
2024/01/19 08:30:33;;;;;;;;;;;11.90;61.10;;;;;;6245375;23;19907;-69
2024/01/19 08:32:59;;;;;;;;;;;11.80;61.00;;;;;;6245702;23;19911;-69
2024/01/19 08:35:25;;;;;;;;;;;11.80;61.10;;;;;;6245304;23;19903;-69
2024/01/19 08:37:52;;;;;;;;;;;11.90;60.60;;;;;;6245555;23;19914;-69
2024/01/19 08:40:17;;;;;;;;;;;11.90;60.90;;;;;;6245693;23;19905;-69
2024/01/19 08:42:43;;;;;;;;;;;11.80;60.40;;;;;;6245268;23;20234;-69
2024/01/19 08:45:09;;;;;;;;;;;12.00;61.10;;;;;;6245274;22;19921;-69
2024/01/19 08:47:35;;;;;;;;;;;11.80;60.70;;;;;;6245306;23;20207;-69
2024/01/19 08:50:02;;;;;;;;;;;11.90;60.90;;;;;;6245194;23;19911;-68
2024/01/19 08:52:29;;;;;;;;;;;11.90;60.70;;;;;;6245555;23;19926;-69
2024/01/19 08:54:54;;;;;;;;;;;11.90;60.50;;;;;;6243904;23;20322;-68
2024/01/19 08:57:20;;;;;;;;;;;11.70;60.70;;;;;;6217991;23;19947;-69
2024/01/19 08:59:45;;;;;;;;;;;11.90;60.70;;;;;;6245005;23;19986;-70
2024/01/19 09:02:11;;;;;;;;;;;11.90;60.70;;;;;;6245966;23;20322;-68
2024/01/19 09:04:38;;;;;;;;;;;11.90;60.50;;;;;;6244995;23;19904;-69
2024/01/19 09:07:04;;;;;;;;;;;11.90;60.20;;;;;;6245095;23;19908;-69
2024/01/19 09:09:29;;;;;;;;;;;12.00;60.80;;;;;;6243285;23;20012;-69
2024/01/19 09:11:56;;;;;;;;;;;12.00;60.80;;;;;;6245223;23;19904;-68
2024/01/19 09:14:22;;;;;;;;;;;11.90;60.30;;;;;;6244826;23;20334;-68
2024/01/19 09:16:47;;;;;;;;;;;12.00;60.20;;;;;;6244713;23;19912;-69
2024/01/19 09:19:13;;;;;;;;;;;12.00;60.20;;;;;;6244772;23;19911;-69
2024/01/19 09:21:45;;;;;;;;;;;12.00;60.60;;;;;;6244821;23;20324;-68
2024/01/19 09:24:11;;;;;;;;;;;12.00;59.60;;;;;;6255495;23;19908;-68
2024/01/19 09:26:37;;;;;;;;;;;11.90;60.20;;;;;;6244885;23;20397;-69
2024/01/19 09:29:04;;;;;;;;;;;12.00;59.80;;;;;;6245361;23;19915;-68
2024/01/19 09:31:30;;;;;;;;;;;12.00;60.60;;;;;;6245224;22;19959;-69
2024/01/19 09:33:56;;;;;;;;;;;12.10;60.20;;;;;;6245039;23;19915;-68
2024/01/19 09:36:22;;;;;;;;;;;12.00;60.40;;;;;;6244797;23;19919;-69
2024/01/19 09:38:48;;;;;;;;;;;12.00;60.20;;;;;;6245201;23;19903;-69
2024/01/19 09:41:14;;;;;;;;;;;12.00;60.00;;;;;;6245168;23;20219;-68
2024/01/19 09:43:41;;;;;;;;;;;12.00;60.00;;;;;;6244753;23;19911;-69
2024/01/19 09:46:10;;;;;;;;;;;12.00;60.20;;;;;;6244785;22;19927;-69
2024/01/19 09:48:43;;;;;;;;;;;12.00;60.40;;;;;;6244435;23;19982;-69
2024/01/19 09:51:10;;;;;;;;;;;12.10;60.20;;;;;;6245345;23;19904;-69
2024/01/19 09:53:42;;;;;;;;;;;12.00;60.50;;;;;;6244720;23;19926;-69
2024/01/19 09:56:08;;;;;;;;;;;12.10;60.60;;;;;;6254816;23;20410;-68
2024/01/19 09:58:33;;;;;;;;;;;12.10;60.50;;;;;;6254893;23;19992;-68
2024/01/19 10:01:00;;;;;;;;;;;12.10;60.70;;;;;;6255092;23;19903;-68
2024/01/19 10:03:27;;;;;;;;;;;12.10;60.60;;;;;;6255074;23;19904;-74
2024/01/19 10:05:53;;;;;;;;;;;12.10;60.60;;;;;;6244788;23;19904;-74
2024/01/19 10:08:19;;;;;;;;;;;12.10;60.60;;;;;;6245378;23;19918;-74
2024/01/19 10:10:46;;;;;;;;;;;12.20;60.70;;;;;;6245432;23;20472;-74
2024/01/19 10:13:12;;;;;;;;;;;12.30;60.80;;;;;;6244935;23;19934;-75
2024/01/19 10:15:38;;;;;;;;;;;12.20;60.50;;;;;;6245146;23;19919;-74
2024/01/19 10:18:05;;;;;;;;;;;12.30;60.70;;;;;;6244747;23;19904;-74
2024/01/19 10:20:32;;;;;;;;;;;12.20;60.00;;;;;;6245121;23;19903;-75
2024/01/19 10:23:17;;;;;;;;;;;12.40;60.30;;;;;;6244959;23;19986;-69
2024/01/19 10:25:43;;;;;;;;;;;12.40;60.80;;;;;;6255096;23;20239;-69
2024/01/19 10:28:11;;;;;;;;;;;12.50;60.40;;;;;;6244907;23;19904;-69
2024/01/19 10:30:37;;;;;;;;;;;12.50;60.30;;;;;;6245052;23;19904;-69
2024/01/19 10:33:04;;;;;;;;;;;12.50;60.60;;;;;;6245231;23;19975;-69
2024/01/19 10:35:29;;;;;;;;;;;12.50;60.00;;;;;;6244689;23;20044;-69
2024/01/19 10:38:06;;;;;;;;;;;12.60;60.30;;;;;;6243144;23;19911;-70
2024/01/19 10:40:32;;;;;;;;;;;12.60;56.40;;;;;;6244675;23;19982;-69
2024/01/19 10:42:58;;;;;;;;;;;12.80;60.10;;;;;;6244990;23;19904;-69
2024/01/19 10:45:25;;;;;;;;;;;12.60;60.40;;;;;;6244828;22;19962;-69
2024/01/19 10:47:59;;;;;;;;;;;12.70;60.50;;;;;;6245087;23;20271;-70
2024/01/19 10:50:26;;;;;;;;;;;12.90;56.30;;;;;;6245039;23;20323;-69
2024/01/19 10:52:53;;;;;;;;;;;12.80;60.20;;;;;;6244783;23;19904;-69
2024/01/19 10:55:20;;;;;;;;;;;12.80;60.40;;;;;;6245132;23;19910;-69
2024/01/19 10:57:48;;;;;;;;;;;12.80;60.10;;;;;;6244484;23;20053;-68
2024/01/19 11:00:23;;;;;;;;;;;12.90;60.20;;;;;;6245421;23;19907;-68
2024/01/19 11:02:55;;;;;;;;;;;12.90;60.10;;;;;;6246609;23;19927;-72
2024/01/19 11:05:21;;;;;;;;;;;13.00;56.10;;;;;;6246541;23;20376;-68
2024/01/19 11:07:49;;;;;;;;;;;13.20;60.40;;;;;;6246974;23;19903;-68
2024/01/19 11:10:14;;;;;;;;;;;13.10;60.40;;;;;;6244933;23;19998;-68
2024/01/19 11:12:44;;;;;;;;;;;13.20;60.40;;;;;;6246438;23;19977;-68
2024/01/19 11:15:13;;;;;;;;;;;13.30;60.10;;;;;;6256566;23;19972;-68
2024/01/19 11:17:39;;;;;;;;;;;13.30;59.80;;;;;;6246745;23;20307;-69
2024/01/19 11:20:05;;;;;;;;;;;13.40;60.00;;;;;;6246358;23;19910;-69
2024/01/19 11:22:31;;;;;;;;;;;13.40;58.70;;;;;;6244880;23;20323;-69
2024/01/19 11:24:59;;;;;;;;;;;13.50;59.60;;;;;;6246481;23;19911;-72
2024/01/19 11:27:28;;;;;;;;;;;13.70;59.80;;;;;;6245092;23;19903;-64
2024/01/19 11:29:59;;;;;;;;;;;13.50;59.50;;;;;;6246544;23;19907;-67
2024/01/19 11:32:25;;;;;;;;;;;13.60;59.80;;;;;;6246407;23;19990;-69
2024/01/19 11:34:50;;;;;;;;;;;13.70;59.20;;;;;;6246715;23;19903;-70
2024/01/19 11:37:34;;;;;;;;;;;13.80;59.70;;;;;;6246268;23;20287;-69
2024/01/19 11:40:00;;;;;;;;;;;13.80;59.10;;;;;;6246264;23;19904;-69
2024/01/19 11:42:34;;;;;;;;;;;13.90;59.10;;;;;;6246386;23;19990;-70
2024/01/19 11:45:00;;;;;;;;;;;13.90;55.30;;;;;;6246217;22;19983;-70
2024/01/19 11:47:35;;;;;;;;;;;14.10;59.20;;;;;;6246789;23;20277;-71
2024/01/19 11:50:07;;;;;;;;;;;14.00;55.50;;;;;;6246408;23;19935;-71
2024/01/19 11:52:37;;;;;;;;;;;14.10;55.30;;;;;;6246140;23;19915;-71
2024/01/19 11:55:22;;;;;;;;;;;14.10;55.10;;;;;;6246868;23;19907;-72
2024/01/19 11:57:48;;;;;;;;;;;14.20;58.70;;;;;;6246728;23;20386;-70
2024/01/19 12:00:14;;;;;;;;;;;14.20;58.80;;;;;;6246368;23;19942;-70
2024/01/19 12:02:40;;;;;;;;;;;14.30;58.30;;;;;;6247192;23;20273;-70
2024/01/19 12:05:07;;;;;;;;;;;14.40;58.70;;;;;;6246147;23;19931;-70
2024/01/19 12:07:33;;;;;;;;;;;14.50;58.20;;;;;;6245951;23;19904;-70
2024/01/19 12:10:19;;;;;;;;;;;14.50;58.90;;;;;;6245945;23;20342;-70
2024/01/19 12:12:46;;;;;;;;;;;14.50;54.60;;;;;;6245508;23;19910;-70
2024/01/19 12:15:14;;;;;;;;;;;14.60;57.80;;;;;;6246076;23;19990;-70
2024/01/19 12:17:43;;;;;;;;;;;14.60;58.30;;;;;;6245995;23;19916;-70
2024/01/19 12:20:16;;;;;;;;;;;14.60;55.60;;;;;;6246090;23;19903;-70
2024/01/19 12:22:45;;;;;;;;;;;14.60;54.40;;;;;;6246315;23;19911;-70
2024/01/19 12:25:12;;;;;;;;;;;14.80;54.30;;;;;;6246037;23;19982;-71
2024/01/19 12:27:37;;;;;;;;;;;14.80;58.30;;;;;;6245984;23;19907;-71
2024/01/19 12:30:13;;;;;;;;;;;14.80;58.10;;;;;;6245891;23;20319;-70
2024/01/19 12:32:39;;;;;;;;;;;14.90;54.10;;;;;;6245828;23;19962;-70
2024/01/19 12:35:05;;;;;;;;;;;14.90;58.00;;;;;;6245773;23;19978;-71
2024/01/19 12:37:30;;;;;;;;;;;14.90;57.10;;;;;;6245596;23;19951;-71
2024/01/19 12:40:15;;;;;;;;;;;14.90;57.30;;;;;;6245736;23;19953;-70
2024/01/19 12:42:41;;;;;;;;;;;15.00;54.20;;;;;;6245657;23;19903;-70
2024/01/19 12:45:07;;;;;;;;;;;15.00;57.80;;;;;;6245505;22;19920;-69
2024/01/19 12:47:33;;;;;;;;;;;15.10;56.70;;;;;;6245738;23;19908;-70
2024/01/19 12:49:58;;;;;;;;;;;15.00;57.60;;;;;;6245697;23;19904;-68
2024/01/19 12:52:24;;;;;;;;;;;15.20;57.60;;;;;;6245864;23;19903;-66
2024/01/19 12:54:50;;;;;;;;;;;15.10;57.30;;;;;;6245602;23;19987;-69
2024/01/19 12:57:18;;;;;;;;;;;15.20;57.40;;;;;;6245601;22;19911;-69
2024/01/19 12:59:45;;;;;;;;;;;15.10;57.50;;;;;;6246234;23;20319;-70
2024/01/19 13:02:11;;;;;;;;;;;15.20;57.40;;;;;;6245823;22;19966;-77
2024/01/19 13:04:36;;;;;;;;;;;15.30;57.40;;;;;;6246204;23;19908;-75
2024/01/19 13:07:02;;;;;;;;;;;15.40;57.20;;;;;;6244156;23;19903;-77
2024/01/19 13:09:28;;;;;;;;;;;15.40;57.10;;;;;;6245504;23;19904;-76
2024/01/19 13:11:53;;;;;;;;;;;15.00;57.00;;;;;;6245581;23;19908;-75
2024/01/19 13:14:22;;;;;;;;;;;15.30;57.20;;;;;;6245389;23;19903;-73
2024/01/19 13:16:52;;;;;;;;;;;15.40;53.40;;;;;;6245343;23;19911;-77
2024/01/19 13:19:17;;;;;;;;;;;15.00;53.10;;;;;;6245425;23;19950;-75
2024/01/19 13:21:43;;;;;;;;;;;15.40;57.30;;;;;;6245387;23;19911;-73
2024/01/19 13:24:08;;;;;;;;;;;15.50;57.10;;;;;;6244853;23;19904;-76
2024/01/19 13:26:34;;;;;;;;;;;15.40;57.10;;;;;;6245770;23;20003;-72
2024/01/19 13:29:00;;;;;;;;;;;15.60;57.00;;;;;;6245263;23;19904;-71
2024/01/19 13:31:25;;;;;;;;;;;15.40;57.10;;;;;;6244325;23;19911;-72
2024/01/19 13:33:52;;;;;;;;;;;15.70;57.10;;;;;;6245126;23;19979;-72
2024/01/19 13:36:18;;;;;;;;;;;15.40;57.20;;;;;;6245053;23;20286;-72
2024/01/19 13:38:43;;;;;;;;;;;15.30;57.30;;;;;;6244933;23;20352;-72
2024/01/19 13:41:10;;;;;;;;;;;15.50;57.70;;;;;;6244881;23;19932;-72
2024/01/19 13:43:36;;;;;;;;;;;15.20;57.90;;;;;;6245113;23;19904;-72
2024/01/19 13:46:02;;;;;;;;;;;15.10;58.40;;;;;;6245286;22;19916;-72
2024/01/19 13:48:28;;;;;;;;;;;15.00;58.50;;;;;;6245257;23;19904;-72
2024/01/19 13:50:55;;;;;;;;;;;15.00;58.40;;;;;;6245205;23;20016;-72
2024/01/19 13:53:20;;;;;;;;;;;15.00;58.40;;;;;;6245252;23;19918;-71
2024/01/19 13:55:46;;;;;;;;;;;15.10;58.40;;;;;;6245339;23;20323;-73
2024/01/19 13:58:11;;;;;;;;;;;15.20;58.60;;;;;;6245115;23;19904;-72
2024/01/19 14:00:37;;;;;;;;;;;15.20;58.30;;;;;;6245037;23;19911;-73
2024/01/19 14:03:03;;;;;;;;;;;15.30;58.40;;;;;;6245047;23;19908;-72
2024/01/19 14:05:29;;;;;;;;;;;15.20;57.80;;;;;;6255212;23;19926;-72
2024/01/19 14:07:55;;;;;;;;;;;15.30;58.10;;;;;;6245546;23;19982;-72
2024/01/19 14:10:21;;;;;;;;;;;15.30;57.80;;;;;;6245051;23;19928;-72
2024/01/19 14:12:47;;;;;;;;;;;15.30;57.70;;;;;;6245651;23;20224;-72